createdAt,value
2018-06-30T00:00:33.804Z,95777.56
2018-06-30T00:03:02.838Z,95775.14
2018-06-30T00:05:36.039Z,95774.08
2018-06-30T00:08:04.961Z,95770.22
2018-06-30T00:10:33.708Z,95769.64
2018-06-30T00:13:02.485Z,95770.52
2018-06-30T00:15:31.420Z,95768.12
2018-06-30T00:18:00.465Z,95761.47
2018-06-30T00:20:29.540Z,95763.58
2018-06-30T00:22:58.500Z,95766.20
2018-06-30T00:25:27.328Z,95758.58
2018-06-30T00:27:56.520Z,95766.86
2018-06-30T00:30:26.369Z,95761.98
2018-06-30T00:32:56.226Z,95760.45
2018-06-30T00:35:25.325Z,95758.38
2018-06-30T00:37:54.187Z,95758.09
2018-06-30T00:40:23.077Z,95762.86
2018-06-30T00:42:51.972Z,95764.03
2018-06-30T00:45:20.871Z,95759.00
2018-06-30T00:47:49.813Z,95759.17
2018-06-30T00:50:18.772Z,95763.41
2018-06-30T00:52:47.728Z,95760.34
2018-06-30T00:55:16.686Z,95759.22
2018-06-30T00:57:45.650Z,95753.70
2018-06-30T01:00:21.266Z,95755.63
2018-06-30T01:02:50.241Z,95753.18
2018-06-30T01:05:19.177Z,95756.11
2018-06-30T01:07:48.143Z,95752.88
2018-06-30T01:10:17.129Z,95754.85
2018-06-30T01:12:45.973Z,95751.14
2018-06-30T01:15:15.065Z,95753.09
2018-06-30T01:17:44.112Z,95747.13
2018-06-30T01:20:13.040Z,95742.46
2018-06-30T01:22:42.034Z,95742.30
2018-06-30T01:25:11.055Z,95740.05
2018-06-30T01:27:39.959Z,95745.05
2018-06-30T01:30:10.483Z,95742.50
2018-06-30T01:32:39.694Z,95743.48
2018-06-30T01:35:09.454Z,95748.35
2018-06-30T01:37:38.669Z,95747.84
2018-06-30T01:40:07.850Z,95743.52
2018-06-30T01:42:37.006Z,95738.98
2018-06-30T01:45:07.754Z,95735.61
2018-06-30T01:47:37.100Z,95739.14
2018-06-30T01:50:06.071Z,95736.11
2018-06-30T01:52:35.052Z,95742.09
2018-06-30T01:55:04.017Z,95737.89
2018-06-30T01:57:32.899Z,95738.38
2018-06-30T02:00:01.807Z,95734.66
2018-06-30T02:02:31.115Z,95736.10
2018-06-30T02:05:00.924Z,95742.91
2018-06-30T02:07:30.890Z,95741.29
2018-06-30T02:09:59.984Z,95742.75
2018-06-30T02:12:28.884Z,95744.68
2018-06-30T02:14:57.747Z,95743.55
2018-06-30T02:17:26.870Z,95740.94
2018-06-30T02:19:55.774Z,95743.21
2018-06-30T02:22:24.723Z,95740.80
2018-06-30T02:24:54.125Z,95744.02
2018-06-30T02:27:23.055Z,95741.91
2018-06-30T02:29:51.919Z,95739.66
2018-06-30T02:32:20.827Z,95750.16
2018-06-30T02:34:49.692Z,95742.06
2018-06-30T02:37:18.520Z,95747.89
2018-06-30T02:39:47.909Z,95744.18
2018-06-30T02:42:16.823Z,95739.00
2018-06-30T02:44:45.687Z,95738.20
2018-06-30T02:47:15.526Z,95740.30
2018-06-30T02:49:44.423Z,95737.55
2018-06-30T02:52:13.317Z,95741.59
2018-06-30T02:54:42.311Z,95740.91
2018-06-30T02:57:11.437Z,95735.25
2018-06-30T02:59:40.521Z,95735.75
2018-06-30T03:02:09.458Z,95730.75
2018-06-30T03:04:38.413Z,95728.97
2018-06-30T03:07:07.324Z,95730.10
2018-06-30T03:09:36.278Z,95725.42
2018-06-30T03:12:05.182Z,95731.39
2018-06-30T03:17:24.058Z,95727.67
2018-06-30T03:19:52.863Z,95726.86
2018-06-30T03:22:21.680Z,95727.03
2018-06-30T03:24:50.437Z,95733.81
2018-06-30T03:27:19.234Z,95725.09
2018-06-30T03:29:48.055Z,95733.81
2018-06-30T03:32:25.158Z,95734.78
2018-06-30T03:35:03.360Z,95736.73
2018-06-30T03:37:40.639Z,95733.48
2018-06-30T03:40:17.652Z,95738.64
2018-06-30T03:42:55.806Z,95737.03
2018-06-30T03:45:32.718Z,95730.58
2018-06-30T03:48:10.974Z,95733.16
2018-06-30T03:50:50.472Z,95728.80
2018-06-30T03:53:27.465Z,95719.60
2018-06-30T03:56:04.562Z,95720.72
2018-06-30T03:58:47.930Z,95720.23
2018-06-30T04:01:25.396Z,95713.45
2018-06-30T04:04:04.309Z,95708.94
2018-06-30T04:06:41.477Z,95706.69
2018-06-30T04:09:18.492Z,95707.66
2018-06-30T04:11:56.842Z,95701.84
2018-06-30T04:14:33.482Z,95708.13
2018-06-30T04:17:11.010Z,95708.30
2018-06-30T04:19:48.053Z,95705.55
2018-06-30T04:22:27.538Z,95704.59
2018-06-30T04:25:04.814Z,95702.50
2018-06-30T04:27:43.240Z,95707.97
2018-06-30T04:30:19.254Z,95706.69
2018-06-30T04:32:57.049Z,95700.41
2018-06-30T04:35:35.376Z,95704.41
2018-06-30T04:38:16.591Z,95700.73
2018-06-30T04:40:56.074Z,95707.34
2018-06-30T04:43:38.378Z,95702.49
2018-06-30T04:46:15.461Z,95705.39
2018-06-30T04:48:52.359Z,95703.13
2018-06-30T04:51:29.595Z,95700.17
2018-06-30T04:54:07.306Z,95696.77
2018-06-30T04:56:44.404Z,95700.78
2018-06-30T04:59:21.774Z,95698.36
2018-06-30T05:01:59.284Z,95701.73
2018-06-30T05:04:38.044Z,95700.09
2018-06-30T05:07:15.120Z,95699.10
2018-06-30T05:09:54.236Z,95699.54
2018-06-30T05:12:34.469Z,95702.28
2018-06-30T05:15:12.230Z,95704.82
2018-06-30T05:17:50.672Z,95704.11
2018-06-30T05:20:29.392Z,95714.22
2018-06-30T05:23:06.809Z,95705.66
2018-06-30T05:25:44.776Z,95710.29
2018-06-30T05:28:22.848Z,95706.23
2018-06-30T05:31:02.125Z,95704.66
2018-06-30T05:33:37.375Z,95700.64
2018-06-30T05:36:06.142Z,95709.04
2018-06-30T05:38:34.960Z,95700.80
2018-06-30T05:41:03.754Z,95703.34
2018-06-30T05:43:32.619Z,95698.35
2018-06-30T05:46:03.107Z,95697.94
2018-06-30T05:48:58.117Z,95702.76
2018-06-30T07:00:50.353Z,95722.39
2018-06-30T07:03:18.958Z,95730.58
2018-06-30T07:05:47.837Z,95726.21
2018-06-30T07:08:19.258Z,95723.53
2018-06-30T07:10:51.352Z,95727.38
2018-06-30T07:16:13.374Z,95735.22
2018-06-30T07:18:42.190Z,95729.59
2018-06-30T07:21:11.056Z,95737.99
2018-06-30T07:23:39.909Z,95729.11
2018-06-30T07:26:08.828Z,95726.88
2018-06-30T07:28:37.607Z,95727.38
2018-06-30T07:31:06.439Z,95731.93
2018-06-30T07:33:35.254Z,95731.23
2018-06-30T07:36:04.437Z,95742.78
2018-06-30T07:38:33.393Z,95750.32
2018-06-30T07:41:02.275Z,95748.20
2018-06-30T07:43:46.715Z,95752.94
2018-06-30T07:46:15.791Z,95766.59
2018-06-30T07:48:44.803Z,95766.17
2018-06-30T07:51:13.680Z,95776.88
2018-06-30T07:53:42.596Z,95781.69
2018-06-30T07:56:11.337Z,95783.83
2018-06-30T07:58:44.131Z,95779.75
2018-06-30T08:01:13.387Z,95788.70
2018-06-30T08:03:43.382Z,95789.37
2018-06-30T08:06:12.538Z,95799.55
2018-06-30T08:08:42.123Z,95793.45
2018-06-30T08:11:11.457Z,95794.81
2018-06-30T08:15:31.210Z,95806.73
2018-06-30T08:17:59.752Z,95815.28
2018-06-30T08:20:28.332Z,95812.22
2018-06-30T08:22:56.960Z,95819.83
2018-06-30T08:25:25.689Z,95818.13
2018-06-30T08:27:54.427Z,95818.54
2018-06-30T08:30:23.005Z,95813.71
2018-06-30T08:32:51.575Z,95808.56
2018-06-30T08:35:24.078Z,95815.81
2018-06-30T08:37:57.367Z,95810.17
2018-06-30T08:40:26.700Z,95822.73
2018-06-30T08:42:55.367Z,95828.14
2018-06-30T08:45:23.955Z,95825.66
2018-06-30T08:47:52.583Z,95825.89
2018-06-30T08:50:22.226Z,95828.72
2018-06-30T08:52:50.852Z,95831.83
2018-06-30T08:55:19.662Z,95828.61
2018-06-30T08:57:48.900Z,95826.84
2018-06-30T09:00:17.915Z,95824.05
2018-06-30T09:02:46.557Z,95821.12
2018-06-30T09:05:15.811Z,95825.06
2018-06-30T09:07:44.636Z,95830.97
2018-06-30T09:10:13.344Z,95832.63
2018-06-30T09:12:42.042Z,95835.12
2018-06-30T09:15:10.356Z,95836.47
2018-06-30T09:17:39.008Z,95835.45
2018-06-30T09:20:07.609Z,95832.52
2018-06-30T09:22:36.188Z,95834.58
2018-06-30T09:25:06.017Z,95843.00
2018-06-30T09:27:34.589Z,95836.55
2018-06-30T09:30:03.240Z,95844.91
2018-06-30T09:32:31.815Z,95842.70
2018-06-30T09:35:00.385Z,95849.72
2018-06-30T09:37:28.979Z,95847.07
2018-06-30T09:39:57.516Z,95845.92
2018-06-30T09:42:26.101Z,95861.28
2018-06-30T09:44:54.837Z,95864.35
2018-06-30T09:47:23.439Z,95864.61
2018-06-30T09:49:52.031Z,95872.09
2018-06-30T09:52:20.597Z,95875.44
2018-06-30T09:54:49.141Z,95870.56
2018-06-30T09:57:17.807Z,95869.13
2018-06-30T09:59:46.364Z,95861.36
2018-06-30T10:02:14.971Z,95879.16
2018-06-30T10:04:43.659Z,95889.91
2018-06-30T10:07:12.204Z,95878.55
2018-06-30T10:09:40.844Z,95886.16
2018-06-30T10:12:09.448Z,95888.13
2018-06-30T10:14:38.181Z,95893.91
2018-06-30T10:17:07.003Z,95901.31
2018-06-30T10:19:35.595Z,95902.38
2018-06-30T10:22:04.164Z,95899.41
2018-06-30T10:24:32.687Z,95896.05
2018-06-30T10:27:01.232Z,95905.55
2018-06-30T10:29:29.871Z,95901.78
2018-06-30T10:31:58.458Z,95896.53
2018-06-30T10:34:27.080Z,95891.03
2018-06-30T10:36:55.660Z,95892.97
2018-06-30T10:39:24.199Z,95886.77
2018-06-30T10:41:52.823Z,95893.44
2018-06-30T10:44:21.658Z,95887.97
2018-06-30T10:46:50.217Z,95885.83
2018-06-30T10:49:20.355Z,95882.08
2018-06-30T10:51:48.915Z,95882.61
2018-06-30T10:54:17.454Z,95871.55
2018-06-30T10:56:46.012Z,95869.73
2018-06-30T10:59:14.552Z,95876.87
2018-06-30T11:01:43.117Z,95875.34
2018-06-30T11:04:11.813Z,95868.33
2018-06-30T11:06:40.407Z,95862.78
2018-06-30T11:09:10.707Z,95850.92
2018-06-30T11:11:39.307Z,95854.22
2018-06-30T11:14:07.881Z,95851.18
2018-06-30T11:16:37.264Z,95853.52
2018-06-30T11:19:05.904Z,95853.19
2018-06-30T11:21:34.468Z,95848.06
2018-06-30T11:24:03.052Z,95849.84
2018-06-30T11:26:31.628Z,95835.73
2018-06-30T11:29:00.177Z,95843.70
2018-06-30T11:31:28.760Z,95856.41
2018-06-30T11:33:57.412Z,95853.66
2018-06-30T11:36:26.000Z,95847.61
2018-06-30T11:38:54.593Z,95845.97
2018-06-30T11:41:23.157Z,95867.87
2018-06-30T11:43:51.699Z,95858.79
2018-06-30T11:46:20.404Z,95838.43
2018-06-30T11:48:48.989Z,95851.75
2018-06-30T11:51:17.547Z,95846.52
2018-06-30T11:53:46.189Z,95844.78
2018-06-30T11:56:14.804Z,95852.44
2018-06-30T11:58:43.685Z,95848.59
2018-06-30T12:01:12.272Z,95852.97
2018-06-30T12:03:40.827Z,95851.88
2018-06-30T12:06:09.361Z,95856.47
2018-06-30T12:08:37.925Z,95852.16
2018-06-30T12:11:06.496Z,95855.14
2018-06-30T12:13:35.975Z,95845.76
2018-06-30T12:16:05.129Z,95848.91
2018-06-30T12:18:33.714Z,95855.19
2018-06-30T12:21:03.200Z,95854.22
2018-06-30T12:23:31.848Z,95855.78
2018-06-30T12:26:00.584Z,95851.81
2018-06-30T12:28:29.159Z,95859.22
2018-06-30T12:30:57.725Z,95854.87
2018-06-30T12:33:26.348Z,95859.95
2018-06-30T12:35:54.937Z,95864.91
2018-06-30T12:38:23.512Z,95870.58
2018-06-30T12:40:52.068Z,95867.20
2018-06-30T12:43:20.627Z,95874.59
2018-06-30T12:45:49.191Z,95860.36
2018-06-30T12:48:17.706Z,95866.72
2018-06-30T12:50:46.251Z,95857.00
2018-06-30T12:53:14.884Z,95866.66
2018-06-30T12:55:43.572Z,95864.59
2018-06-30T12:58:13.315Z,95859.34
2018-06-30T13:00:41.976Z,95850.94
2018-06-30T13:03:10.869Z,95855.37
2018-06-30T13:05:39.520Z,95865.72
2018-06-30T13:08:08.123Z,95858.52
2018-06-30T13:10:36.926Z,95859.77
2018-06-30T13:13:05.526Z,95866.38
2018-06-30T13:15:34.100Z,95860.16
2018-06-30T13:18:02.667Z,95864.75
2018-06-30T13:20:31.235Z,95868.34
2018-06-30T13:22:59.820Z,95867.47
2018-06-30T13:25:28.667Z,95869.00
2018-06-30T13:27:57.244Z,95872.87
2018-06-30T13:30:25.952Z,95879.16
2018-06-30T13:32:54.492Z,95870.84
2018-06-30T13:35:23.042Z,95877.20
2018-06-30T13:37:51.636Z,95880.69
2018-06-30T13:40:20.305Z,95880.77
2018-06-30T13:42:48.880Z,95874.12
2018-06-30T13:45:17.485Z,95875.23
2018-06-30T13:47:46.097Z,95875.22
2018-06-30T13:50:14.648Z,95873.61
2018-06-30T13:52:43.238Z,95878.50
2018-06-30T13:55:11.807Z,95882.30
2018-06-30T13:57:40.568Z,95884.34
2018-06-30T14:00:09.182Z,95887.42
2018-06-30T14:02:37.823Z,95878.43
2018-06-30T14:05:06.563Z,95877.98
2018-06-30T14:07:35.257Z,95885.78
2018-06-30T14:10:05.628Z,95881.20
2018-06-30T14:12:34.177Z,95879.02
2018-06-30T14:15:02.854Z,95871.66
2018-06-30T14:17:31.454Z,95876.76
2018-06-30T14:20:00.011Z,95879.00
2018-06-30T14:22:28.538Z,95878.72
2018-06-30T14:24:57.081Z,95883.41
2018-06-30T14:27:25.843Z,95886.02
2018-06-30T14:29:54.397Z,95896.66
2018-06-30T14:32:22.939Z,95894.19
2018-06-30T14:34:51.507Z,95876.30
2018-06-30T14:37:20.193Z,95890.61
2018-06-30T14:39:48.812Z,95892.56
2018-06-30T14:42:17.455Z,95888.13
2018-06-30T14:44:46.193Z,95897.12
2018-06-30T14:47:14.946Z,95899.13
2018-06-30T14:49:43.933Z,95901.11
2018-06-30T14:52:12.564Z,95894.05
2018-06-30T14:54:41.491Z,95900.11
2018-06-30T14:57:10.992Z,95896.80
2018-06-30T14:59:39.548Z,95899.66
2018-06-30T15:02:08.112Z,95897.84
2018-06-30T15:04:36.863Z,95892.74
2018-06-30T15:07:05.849Z,95904.49
2018-06-30T15:09:34.399Z,95904.41
2018-06-30T15:12:02.965Z,95905.73
2018-06-30T15:14:31.500Z,95910.98
2018-06-30T15:17:00.056Z,95910.31
2018-06-30T15:19:28.665Z,95913.84
2018-06-30T15:21:57.309Z,95917.05
2018-06-30T15:24:25.870Z,95918.25
2018-06-30T15:26:54.408Z,95920.98
2018-06-30T15:29:22.936Z,95915.72
2018-06-30T15:31:51.483Z,95930.39
2018-06-30T15:34:20.272Z,95931.60
2018-06-30T15:36:48.885Z,95920.69
2018-06-30T15:39:17.445Z,95923.73
2018-06-30T15:41:46.082Z,95927.61
2018-06-30T15:44:14.681Z,95920.96
2018-06-30T15:46:43.351Z,95934.46
2018-06-30T15:49:12.040Z,95939.44
2018-06-30T15:51:40.648Z,95937.67
2018-06-30T15:54:09.297Z,95936.42
2018-06-30T15:56:37.852Z,95945.75
2018-06-30T15:59:06.411Z,95934.59
2018-06-30T16:01:35.024Z,95936.98
2018-06-30T16:04:03.555Z,95932.38
2018-06-30T16:06:32.157Z,95943.13
2018-06-30T16:09:00.691Z,95943.31
2018-06-30T16:11:29.468Z,95945.38
2018-06-30T16:13:57.995Z,95947.84
2018-06-30T16:16:26.592Z,95949.41
2018-06-30T16:18:55.248Z,95954.00
2018-06-30T16:21:23.819Z,95963.68
2018-06-30T16:23:52.377Z,95957.05
2018-06-30T16:26:21.080Z,95963.78
2018-06-30T16:28:49.686Z,95961.75
2018-06-30T16:31:18.239Z,95970.73
2018-06-30T16:33:46.905Z,95971.83
2018-06-30T16:36:15.492Z,95965.56
2018-06-30T16:38:44.180Z,95973.21
2018-06-30T16:41:13.129Z,95975.65
2018-06-30T16:43:41.756Z,95980.03
2018-06-30T16:46:10.329Z,95977.05
2018-06-30T16:48:38.940Z,95979.33
2018-06-30T16:51:07.496Z,95983.87
2018-06-30T16:53:36.062Z,95980.95
2018-06-30T16:56:04.700Z,95985.45
2018-06-30T16:58:33.408Z,95987.20
2018-06-30T17:01:02.125Z,95988.84
2018-06-30T17:03:30.679Z,95986.06
2018-06-30T17:05:59.270Z,95985.94
2018-06-30T17:08:27.875Z,95989.88
2018-06-30T17:10:56.449Z,95993.50
2018-06-30T17:13:25.032Z,95993.19
2018-06-30T17:15:53.608Z,96003.25
2018-06-30T17:18:22.286Z,95995.41
2018-06-30T17:20:50.877Z,96000.71
2018-06-30T17:23:19.403Z,95990.33
2018-06-30T17:25:48.050Z,95998.70
2018-06-30T17:28:16.538Z,95998.58
2018-06-30T17:30:45.084Z,96003.00
2018-06-30T17:33:13.707Z,96001.20
2018-06-30T17:35:42.224Z,96001.07
2018-06-30T17:38:10.828Z,96009.79
2018-06-30T17:40:39.472Z,96008.93
2018-06-30T17:43:08.040Z,96007.01
2018-06-30T17:45:36.643Z,96004.71
2018-06-30T17:48:05.568Z,96007.11
2018-06-30T17:50:34.115Z,96009.17
2018-06-30T17:53:02.769Z,96008.11
2018-06-30T17:55:31.455Z,96010.86
2018-06-30T17:58:00.052Z,96013.41
2018-06-30T18:00:28.760Z,96011.47
2018-06-30T18:02:57.784Z,96019.81
2018-06-30T18:05:26.904Z,96015.87
2018-06-30T18:07:55.480Z,96019.92
2018-06-30T18:10:24.080Z,96016.20
2018-06-30T18:12:52.853Z,96020.88
2018-06-30T18:15:21.465Z,96021.05
2018-06-30T18:17:50.016Z,96017.52
2018-06-30T18:20:18.616Z,96024.86
2018-06-30T18:22:47.311Z,96032.08
2018-06-30T18:25:15.864Z,96032.81
2018-06-30T18:27:44.579Z,96035.38
2018-06-30T18:30:13.149Z,96032.96
2018-06-30T18:32:42.080Z,96031.11
2018-06-30T18:35:10.901Z,96044.58
2018-06-30T18:37:39.487Z,96041.61
2018-06-30T18:40:08.052Z,96039.63
2018-06-30T18:42:36.600Z,96045.41
2018-06-30T18:45:05.292Z,96047.81
2018-06-30T18:47:34.017Z,96049.53
2018-06-30T18:50:02.569Z,96039.72
2018-06-30T18:52:31.264Z,96055.03
2018-06-30T18:54:59.975Z,96051.14
2018-06-30T18:57:28.512Z,96050.70
2018-06-30T18:59:57.108Z,96052.19
2018-06-30T19:02:25.872Z,96057.73
2018-06-30T19:04:54.558Z,96065.18
2018-06-30T19:07:23.259Z,96064.54
2018-06-30T19:09:51.850Z,96074.22
2018-06-30T19:12:20.378Z,96082.47
2018-06-30T19:14:48.952Z,96080.02
2018-06-30T19:17:17.500Z,96091.47
2018-06-30T19:19:46.188Z,96091.27
2018-06-30T19:22:14.736Z,96093.17
2018-06-30T19:24:43.328Z,96100.06
2018-06-30T19:27:13.460Z,96097.77
2018-06-30T19:29:42.168Z,96104.70
2018-06-30T19:32:10.732Z,96112.16
2018-06-30T19:34:39.255Z,96109.56
2018-06-30T19:37:07.888Z,96112.63
2018-06-30T19:39:36.484Z,96117.80
2018-06-30T19:42:05.101Z,96119.72
2018-06-30T19:44:33.877Z,96119.59
2018-06-30T19:47:02.643Z,96118.45
2018-06-30T19:49:31.338Z,96125.19
2018-06-30T19:51:59.888Z,96123.47
2018-06-30T19:54:28.492Z,96123.53
2018-06-30T19:56:57.141Z,96129.16
2018-06-30T19:59:25.781Z,96138.88
2018-06-30T20:01:55.197Z,96134.69
2018-06-30T20:04:23.800Z,96139.23
2018-06-30T20:06:53.234Z,96143.98
2018-06-30T20:09:21.771Z,96144.41
2018-06-30T20:11:50.339Z,96145.95
2018-06-30T20:14:18.954Z,96159.44
2018-06-30T20:16:47.557Z,96163.88
2018-06-30T20:19:16.134Z,96163.52
2018-06-30T20:21:44.675Z,96174.72
2018-06-30T20:24:13.276Z,96172.69
2018-06-30T20:26:41.819Z,96174.91
2018-06-30T20:29:10.464Z,96176.93
2018-06-30T20:31:39.072Z,96181.17
2018-06-30T20:34:08.864Z,96178.27
2018-06-30T20:36:37.455Z,96188.92
2018-06-30T20:39:12.757Z,96187.48
2018-06-30T20:41:41.436Z,96186.02
2018-06-30T20:44:10.222Z,96186.95
2018-06-30T20:46:38.885Z,96198.73
2018-06-30T20:49:07.446Z,96191.75
2018-06-30T20:51:36.013Z,96194.58
2018-06-30T20:54:04.705Z,96199.05
2018-06-30T20:56:33.220Z,96205.27
2018-06-30T20:59:01.766Z,96211.28
2018-06-30T21:01:30.596Z,96211.28
2018-06-30T21:03:59.304Z,96210.66
2018-06-30T21:06:27.844Z,96212.94
2018-06-30T21:08:56.407Z,96214.45
2018-06-30T21:11:25.319Z,96220.70
2018-06-30T21:13:54.697Z,96222.43
2018-06-30T21:16:23.940Z,96228.91
2018-06-30T21:18:52.941Z,96227.62
2018-06-30T21:21:23.004Z,96226.66
2018-06-30T21:23:52.299Z,96233.70
2018-06-30T21:26:21.407Z,96239.07
2018-06-30T21:28:50.272Z,96233.73
2018-06-30T21:31:18.831Z,96234.34
2018-06-30T21:33:47.652Z,96235.37
2018-06-30T21:36:17.125Z,96233.82
2018-06-30T21:38:46.628Z,96242.97
2018-06-30T21:41:15.348Z,96246.06
2018-06-30T21:43:44.212Z,96246.13
2018-06-30T21:46:14.083Z,96246.95
2018-06-30T21:48:44.052Z,96249.85
2018-06-30T21:51:13.797Z,96250.18
2018-06-30T21:53:43.013Z,96252.56
2018-06-30T21:56:12.149Z,96253.83
2018-06-30T21:58:40.826Z,96260.49
2018-06-30T22:01:15.241Z,96250.57
2018-06-30T22:03:44.630Z,96254.48
2018-06-30T22:06:15.256Z,96255.17
2018-06-30T22:08:46.018Z,96258.66
2018-06-30T22:11:15.446Z,96253.38
2018-06-30T22:13:44.083Z,96258.11
2018-06-30T22:16:13.237Z,96254.10
2018-06-30T22:18:41.961Z,96247.45
2018-06-30T22:21:11.052Z,96245.60
2018-06-30T22:23:40.120Z,96246.97
2018-06-30T22:26:09.829Z,96252.30
2018-06-30T22:28:39.615Z,96249.95
2018-06-30T22:31:08.773Z,96245.80
2018-06-30T22:33:37.934Z,96244.59
2018-06-30T22:36:07.982Z,96247.62
2018-06-30T22:38:37.276Z,96246.91
2018-06-30T22:41:07.060Z,96249.48
2018-06-30T22:43:36.451Z,96253.14
2018-06-30T22:46:05.819Z,96254.48
2018-06-30T22:48:34.642Z,96249.84
2018-06-30T22:51:03.945Z,96250.37
2018-06-30T22:53:33.702Z,96248.03
2018-06-30T22:56:03.507Z,96239.86
2018-06-30T22:58:32.600Z,96243.94
2018-06-30T23:01:02.520Z,96251.39
2018-06-30T23:03:31.653Z,96242.92
2018-06-30T23:06:00.393Z,96244.49
2018-06-30T23:08:30.599Z,96247.91
2018-06-30T23:11:00.128Z,96252.33
2018-06-30T23:13:29.216Z,96252.98
2018-06-30T23:15:58.250Z,96247.89
2018-06-30T23:18:27.838Z,96249.12
2018-06-30T23:20:56.724Z,96251.14
2018-06-30T23:23:25.858Z,96247.05
2018-06-30T23:25:54.684Z,96249.64
2018-06-30T23:28:25.199Z,96248.00
2018-06-30T23:30:54.901Z,96249.71
2018-06-30T23:33:24.519Z,96250.08
2018-06-30T23:35:53.423Z,96246.02
2018-06-30T23:38:22.559Z,96244.73
2018-06-30T23:40:51.675Z,96250.10
2018-06-30T23:43:20.382Z,96241.50
2018-06-30T23:45:49.851Z,96244.66
2018-06-30T23:48:19.480Z,96245.28
2018-06-30T23:50:48.898Z,96242.36
2018-06-30T23:53:17.572Z,96243.30
2018-06-30T23:55:47.199Z,96241.67
2018-06-30T23:58:16.392Z,96243.80
